createdAt,value
2019-05-17T00:01:57.555Z,101127.78
2019-05-17T00:04:38.617Z,101126.88
2019-05-17T00:07:20.466Z,101126.58
2019-05-17T00:10:01.647Z,101122.66
2019-05-17T00:12:58.096Z,101119.36
2019-05-17T00:15:24.340Z,101103.11
2019-05-17T00:18:03.189Z,101116.48
2019-05-17T00:20:46.476Z,101111.84
2019-05-17T00:23:33.745Z,101110.46
2019-05-17T00:25:58.228Z,101111.20
2019-05-17T00:28:31.351Z,101104.64
2019-05-17T00:31:09.716Z,101106.34
2019-05-17T00:33:49.880Z,101110.65
2019-05-17T00:36:26.867Z,101105.09
2019-05-17T00:39:07.428Z,101099.77
2019-05-17T00:43:17.041Z,101095.47
2019-05-17T00:44:10.624Z,101093.41
2019-05-17T00:46:46.591Z,101091.48
2019-05-17T00:49:18.760Z,101092.60
2019-05-17T00:51:56.726Z,101082.47
2019-05-17T00:54:30.170Z,101078.67
2019-05-17T00:57:07.518Z,101083.17
2019-05-17T00:59:47.491Z,101082.83
2019-05-17T01:02:21.234Z,101085.30
2019-05-17T01:04:57.398Z,101081.44
2019-05-17T01:07:30.296Z,101083.78
2019-05-17T01:10:17.149Z,101078.42
2019-05-17T01:12:48.325Z,101078.13
2019-05-17T01:15:27.168Z,101073.74
2019-05-17T01:17:53.674Z,101073.27
2019-05-17T01:20:27.719Z,101071.42
2019-05-17T01:22:59.714Z,101067.95
2019-05-17T01:25:37.058Z,101067.52
2019-05-17T01:28:16.295Z,101052.77
2019-05-17T01:30:54.103Z,101063.58
2019-05-17T01:33:32.367Z,101059.89
2019-05-17T01:36:14.305Z,101051.86
2019-05-17T01:38:51.063Z,101054.52
2019-05-17T01:41:38.329Z,101052.89
2019-05-17T01:44:23.727Z,101052.25
2019-05-17T01:46:51.296Z,101052.41
2019-05-17T01:49:31.661Z,101048.60
2019-05-17T01:52:11.889Z,101052.59
2019-05-17T01:54:46.955Z,101050.66
2019-05-17T01:59:18.775Z,101046.63
2019-05-17T02:00:18.109Z,101051.34
2019-05-17T02:02:52.883Z,101041.68
2019-05-17T02:05:23.958Z,101046.02
2019-05-17T02:07:57.786Z,101040.69
2019-05-17T02:10:34.355Z,101040.39
2019-05-17T02:13:10.368Z,101034.58
2019-05-17T02:15:41.239Z,101029.22
2019-05-17T02:18:17.405Z,101037.20
2019-05-17T02:20:51.039Z,101020.89
2019-05-17T02:23:34.171Z,101018.09
2019-05-17T02:26:09.608Z,101016.59
2019-05-17T02:28:42.605Z,101012.77
2019-05-17T02:31:18.912Z,101014.41
2019-05-17T02:33:53.466Z,101006.42
2019-05-17T02:36:22.930Z,101006.42
2019-05-17T02:41:53.220Z,101020.55
2019-05-17T02:44:43.722Z,101017.52
2019-05-17T02:47:33.534Z,101021.44
2019-05-17T02:50:05.226Z,101018.06
2019-05-17T02:52:32.840Z,101022.42
2019-05-17T02:55:05.699Z,101020.66
2019-05-17T02:57:34.668Z,101015.50
2019-05-17T03:00:13.490Z,101020.21
2019-05-17T03:02:53.672Z,101020.52
2019-05-17T03:05:26.594Z,101019.83
2019-05-17T03:07:59.550Z,101024.72
2019-05-17T03:10:37.559Z,101028.71
2019-05-17T03:13:17.835Z,101026.73
2019-05-17T03:15:58.718Z,101031.06
2019-05-17T03:18:33.390Z,101029.73
2019-05-17T03:21:03.802Z,101027.37
2019-05-17T03:23:45.092Z,101031.68
2019-05-17T03:26:23.984Z,101033.55
2019-05-17T03:28:54.665Z,101037.00
2019-05-17T03:31:33.139Z,101034.72
2019-05-17T03:34:07.520Z,101029.28
2019-05-17T03:36:36.988Z,101026.52
2019-05-17T03:39:12.805Z,101025.33
2019-05-17T03:41:44.483Z,101019.31
2019-05-17T03:44:22.438Z,101023.73
2019-05-17T03:47:03.267Z,101017.00
2019-05-17T03:49:33.461Z,101013.35
2019-05-17T03:52:04.484Z,101010.86
2019-05-17T03:54:39.153Z,101012.39
2019-05-17T03:57:13.382Z,101006.39
2019-05-17T03:59:52.243Z,101013.38
2019-05-17T04:02:24.521Z,101014.06
2019-05-17T04:05:04.191Z,101015.05
2019-05-17T04:07:33.142Z,101018.03
2019-05-17T04:10:09.634Z,101022.36
2019-05-17T04:12:52.705Z,101021.03
2019-05-17T04:15:25.683Z,101014.06
2019-05-17T04:18:12.766Z,101017.75
2019-05-17T04:20:43.608Z,101024.06
2019-05-17T04:23:14.612Z,101030.00
2019-05-17T04:26:03.821Z,101030.66
2019-05-17T04:28:34.436Z,101033.36
2019-05-17T04:31:14.547Z,101030.38
2019-05-17T04:33:45.186Z,101029.70
2019-05-17T04:36:18.833Z,101026.76
2019-05-17T04:38:52.821Z,101026.27
2019-05-17T04:41:39.709Z,101032.09
2019-05-17T04:44:03.092Z,101029.53
2019-05-17T04:46:53.509Z,101031.51
2019-05-17T04:49:27.123Z,101028.02
2019-05-17T04:52:03.718Z,101026.79
2019-05-17T04:54:37.297Z,101026.95
2019-05-17T04:57:13.952Z,101018.51
2019-05-17T04:59:48.735Z,101016.84
2019-05-17T05:02:19.631Z,101016.66
2019-05-17T05:04:48.340Z,101010.49
2019-05-17T05:07:16.749Z,101017.16
2019-05-17T05:09:47.733Z,101019.47
2019-05-17T05:12:18.079Z,101016.30
2019-05-17T05:14:46.488Z,101017.31
2019-05-17T05:17:22.162Z,101018.16
2019-05-17T05:19:58.924Z,101017.17
2019-05-17T05:22:27.331Z,101015.22
2019-05-17T05:24:55.757Z,101010.02
2019-05-17T05:27:26.588Z,101006.19
2019-05-17T05:29:55.056Z,101006.39
2019-05-17T05:32:25.950Z,101008.21
2019-05-17T05:34:57.905Z,100998.55
2019-05-17T05:37:26.328Z,100998.23
2019-05-17T05:39:54.775Z,101006.39
2019-05-17T05:42:31.556Z,101003.55
2019-05-17T05:45:03.192Z,101005.89
2019-05-17T05:47:37.296Z,101006.20
2019-05-17T05:50:08.539Z,101013.23
2019-05-17T05:52:36.975Z,101009.23
2019-05-17T05:55:06.934Z,101010.20
2019-05-17T05:57:35.369Z,101013.22
2019-05-17T06:00:06.898Z,101018.22
2019-05-17T06:02:35.557Z,101021.89
2019-05-17T06:05:09.506Z,101022.55
2019-05-17T06:07:46.828Z,101018.06
2019-05-17T06:10:14.245Z,101015.70
2019-05-17T06:12:45.807Z,101013.38
2019-05-17T06:15:14.747Z,101019.19
2019-05-17T06:17:43.281Z,101012.54
2019-05-17T06:20:15.991Z,101010.89
2019-05-17T06:22:48.175Z,101015.72
2019-05-17T06:25:23.098Z,101004.56
2019-05-17T06:27:48.051Z,101010.20
2019-05-17T06:30:17.971Z,101008.87
2019-05-17T06:32:46.376Z,101007.20
2019-05-17T06:35:16.133Z,101005.89
2019-05-17T06:37:44.535Z,101007.55
2019-05-17T06:40:16.803Z,101004.20
2019-05-17T06:42:47.666Z,100999.88
2019-05-17T06:45:19.022Z,101003.86
2019-05-17T06:47:46.573Z,101001.88
2019-05-17T06:50:15.748Z,101001.38
2019-05-17T06:52:44.351Z,100997.20
2019-05-17T06:55:25.836Z,100995.34
2019-05-17T06:58:07.313Z,100996.20
2019-05-17T07:00:35.729Z,100997.52
2019-05-17T07:03:04.157Z,101004.88
2019-05-17T07:05:40.409Z,101004.67
2019-05-17T07:08:10.848Z,101000.88
2019-05-17T07:11:00.669Z,100999.14
2019-05-17T07:13:30.050Z,100998.91
2019-05-17T07:15:59.675Z,101006.41
2019-05-17T07:18:30.088Z,101014.78
2019-05-17T07:21:02.728Z,101009.26
2019-05-17T07:23:30.242Z,101010.44
2019-05-17T07:26:09.081Z,101003.48
2019-05-17T07:28:40.257Z,100998.88
2019-05-17T07:31:10.137Z,100989.77
2019-05-17T07:33:39.950Z,100983.38
2019-05-17T07:36:10.170Z,100932.81
2019-05-17T07:38:39.655Z,100986.73
2019-05-17T07:41:10.082Z,100983.72
2019-05-17T07:43:40.289Z,100979.83
2019-05-17T07:46:09.640Z,100981.78
2019-05-17T07:48:40.556Z,100979.73
2019-05-17T07:51:10.140Z,100970.15
2019-05-17T07:53:40.016Z,100970.02
2019-05-17T07:56:10.302Z,100963.39
2019-05-17T07:58:40.425Z,100959.72
2019-05-17T08:01:10.040Z,100963.21
2019-05-17T08:03:42.510Z,100967.55
2019-05-17T08:06:15.875Z,100977.04
2019-05-17T08:08:44.385Z,100981.00
2019-05-17T08:11:12.794Z,100983.38
2019-05-17T08:13:41.231Z,100971.76
2019-05-17T08:16:10.263Z,100976.37
2019-05-17T08:18:40.278Z,100983.58
2019-05-17T08:21:10.397Z,100981.94
2019-05-17T08:23:40.305Z,100985.00
2019-05-17T08:26:10.741Z,100983.11
2019-05-17T08:28:40.417Z,100983.04
2019-05-17T08:31:09.917Z,100982.28
2019-05-17T08:33:40.462Z,100979.05
2019-05-17T08:36:09.280Z,100976.39
2019-05-17T08:38:39.357Z,100973.51
2019-05-17T08:41:10.317Z,100979.75
2019-05-17T08:43:45.751Z,100979.11
2019-05-17T08:46:10.783Z,100978.80
2019-05-17T08:48:40.127Z,100976.07
2019-05-17T08:51:10.749Z,100973.05
2019-05-17T08:53:40.036Z,100972.94
2019-05-17T08:56:09.960Z,100973.51
2019-05-17T08:58:40.338Z,100968.33
2019-05-17T09:01:11.243Z,100960.16
2019-05-17T09:03:41.775Z,100956.36
2019-05-17T09:06:12.305Z,100958.49
2019-05-17T09:08:40.690Z,100957.55
2019-05-17T09:11:09.921Z,100946.27
2019-05-17T09:13:41.248Z,100954.24
2019-05-17T09:16:10.790Z,100955.47
2019-05-17T09:18:39.544Z,100948.72
2019-05-17T09:21:09.719Z,100946.57
2019-05-17T09:23:39.636Z,100948.77
2019-05-17T09:26:10.078Z,100938.35
2019-05-17T09:28:39.405Z,100943.47
2019-05-17T09:31:10.241Z,100943.28
2019-05-17T09:33:40.445Z,100944.84
2019-05-17T09:36:10.137Z,100935.50
2019-05-17T09:38:40.417Z,100940.99
2019-05-17T09:41:13.850Z,100937.48
2019-05-17T09:43:43.285Z,100936.35
2019-05-17T09:46:12.665Z,100938.23
2019-05-17T09:48:41.116Z,100935.61
2019-05-17T09:51:10.536Z,100935.67
2019-05-17T09:53:40.107Z,100933.14
2019-05-17T09:56:11.689Z,100933.28
2019-05-17T09:58:42.826Z,100930.48
2019-05-17T10:01:11.229Z,100916.48
2019-05-17T10:03:39.882Z,100928.89
2019-05-17T10:06:09.806Z,100922.44
2019-05-17T10:08:39.445Z,100914.29
2019-05-17T10:11:11.282Z,100918.97
2019-05-17T10:13:41.885Z,100910.47
2019-05-17T10:16:10.157Z,100912.97
2019-05-17T10:18:40.113Z,100911.93
2019-05-17T10:21:10.471Z,100905.95
2019-05-17T10:23:40.660Z,100899.21
2019-05-17T10:26:24.587Z,100890.91
2019-05-17T10:29:10.036Z,100895.08
2019-05-17T10:31:37.036Z,100883.59
2019-05-17T10:34:05.542Z,100883.39
2019-05-17T10:36:33.989Z,100878.00
2019-05-17T10:39:02.465Z,100876.30
2019-05-17T10:41:30.887Z,100878.40
2019-05-17T10:43:59.310Z,100873.97
2019-05-17T10:46:29.914Z,100863.17
2019-05-17T10:48:57.905Z,100865.52
2019-05-17T10:51:26.357Z,100859.59
2019-05-17T10:53:54.843Z,100863.27
2019-05-17T10:56:23.788Z,100864.04
2019-05-17T10:58:52.447Z,100856.67
2019-05-17T11:01:21.035Z,100861.58
2019-05-17T11:03:50.273Z,100868.59
2019-05-17T11:06:19.775Z,100865.16
2019-05-17T11:08:50.119Z,100863.64
2019-05-17T11:11:20.322Z,100859.70
2019-05-17T11:13:48.739Z,100859.47
2019-05-17T11:16:17.207Z,100864.11
2019-05-17T11:18:45.624Z,100865.06
2019-05-17T11:21:14.055Z,100862.85
2019-05-17T11:23:42.552Z,100859.20
2019-05-17T11:26:10.981Z,100859.35
2019-05-17T11:28:39.373Z,100853.59
2019-05-17T11:31:11.360Z,100858.39
2019-05-17T11:33:39.782Z,100850.81
2019-05-17T11:36:08.344Z,100849.72
2019-05-17T11:38:36.743Z,100849.63
2019-05-17T11:41:19.930Z,100838.74
2019-05-17T11:43:35.521Z,100843.12
2019-05-17T11:46:04.177Z,100848.53
2019-05-17T11:48:32.600Z,100839.43
2019-05-17T11:51:01.001Z,100836.52
2019-05-17T11:53:34.531Z,100835.09
2019-05-17T11:56:02.981Z,100826.87
2019-05-17T11:58:33.871Z,100835.82
2019-05-17T12:01:02.335Z,100834.05
2019-05-17T12:03:30.741Z,100829.84
2019-05-17T12:05:59.162Z,100825.49
2019-05-17T12:08:31.306Z,100820.77
2019-05-17T12:10:59.066Z,100813.52
2019-05-17T12:13:28.153Z,100811.72
2019-05-17T12:15:56.593Z,100810.66
2019-05-17T12:18:25.055Z,100813.83
2019-05-17T12:20:53.437Z,100814.04
2019-05-17T12:23:23.102Z,100808.97
2019-05-17T12:25:51.583Z,100808.58
2019-05-17T12:28:20.007Z,100804.28
2019-05-17T12:30:48.431Z,100795.71
2019-05-17T12:33:17.908Z,100801.67
2019-05-17T12:35:46.431Z,100800.33
2019-05-17T12:38:14.922Z,100797.23
2019-05-17T12:40:43.361Z,100802.23
2019-05-17T12:43:11.799Z,100799.55
2019-05-17T12:45:40.227Z,100700.56
2019-05-17T12:48:08.625Z,100791.84
2019-05-17T12:50:39.531Z,100787.71
2019-05-17T12:53:07.967Z,100790.62
2019-05-17T12:55:36.406Z,100786.80
2019-05-17T12:58:04.832Z,100785.53
2019-05-17T13:00:33.285Z,100781.67
2019-05-17T13:03:03.361Z,100783.23
2019-05-17T13:05:31.788Z,100790.18
2019-05-17T13:08:03.902Z,100783.11
2019-05-17T13:10:32.328Z,100783.92
2019-05-17T13:13:00.721Z,100786.79
2019-05-17T13:15:29.195Z,100780.00
2019-05-17T13:17:57.621Z,100776.70
2019-05-17T13:20:26.100Z,100776.31
2019-05-17T13:22:54.591Z,100772.93
2019-05-17T13:25:25.068Z,100778.94
2019-05-17T13:27:53.551Z,100781.86
2019-05-17T13:30:22.020Z,100777.70
2019-05-17T13:32:50.513Z,100774.58
2019-05-17T13:35:19.057Z,100769.73
2019-05-17T13:37:47.473Z,100760.19
2019-05-17T13:40:16.279Z,100764.73
2019-05-17T13:42:44.691Z,100759.60
2019-05-17T13:45:13.602Z,100760.20
2019-05-17T13:47:42.004Z,100749.41
2019-05-17T13:50:10.798Z,100745.53
2019-05-17T13:52:39.219Z,100739.81
2019-05-17T13:55:08.898Z,100744.72
2019-05-17T13:57:38.446Z,100748.51
2019-05-17T14:00:08.589Z,100745.59
2019-05-17T14:02:37.020Z,100758.22
2019-05-17T14:05:07.315Z,100753.13
2019-05-17T14:07:35.720Z,100748.38
2019-05-17T14:10:05.431Z,100743.08
2019-05-17T14:12:33.860Z,100739.57
2019-05-17T14:15:02.802Z,100742.05
2019-05-17T14:17:31.234Z,100739.38
2019-05-17T14:19:59.646Z,100742.07
2019-05-17T14:22:28.099Z,100741.39
2019-05-17T14:24:56.614Z,100736.73
2019-05-17T14:27:25.133Z,100740.94
2019-05-17T14:29:53.788Z,100735.23
2019-05-17T14:32:26.289Z,100735.09
2019-05-17T14:34:54.724Z,100735.34
2019-05-17T14:37:23.145Z,100744.92
2019-05-17T14:39:51.573Z,100733.35
2019-05-17T14:42:21.131Z,100737.03
2019-05-17T14:44:49.549Z,100740.81
2019-05-17T14:47:17.994Z,100738.77
2019-05-17T14:49:46.446Z,100734.04
2019-05-17T14:52:14.899Z,100731.81
2019-05-17T14:54:43.342Z,100735.85
2019-05-17T14:57:11.774Z,100732.08
2019-05-17T14:59:40.195Z,100737.43
2019-05-17T15:02:08.644Z,100732.08
2019-05-17T15:04:37.063Z,100727.95
2019-05-17T15:07:05.500Z,100729.53
2019-05-17T15:09:36.343Z,100720.95
2019-05-17T15:12:04.772Z,100719.91
2019-05-17T15:14:35.587Z,100721.67
2019-05-17T15:17:06.212Z,100719.19
2019-05-17T15:19:34.671Z,100720.28
2019-05-17T15:22:03.216Z,100722.56
2019-05-17T15:24:31.628Z,100722.88
2019-05-17T15:27:05.727Z,100708.37
2019-05-17T15:29:34.793Z,100712.34
2019-05-17T15:32:03.194Z,100713.05
2019-05-17T15:34:32.850Z,100707.23
2019-05-17T15:37:01.279Z,100704.15
2019-05-17T15:39:30.174Z,100708.40
2019-05-17T15:41:58.612Z,100698.05
2019-05-17T15:44:27.247Z,100706.27
2019-05-17T15:46:55.725Z,100701.38
2019-05-17T15:49:24.662Z,100700.99
2019-05-17T15:51:53.575Z,100702.73
2019-05-17T15:54:21.977Z,100709.64
2019-05-17T15:56:50.410Z,100713.02
2019-05-17T15:59:18.873Z,100706.98
2019-05-17T16:01:49.657Z,100700.33
2019-05-17T16:04:18.220Z,100704.91
2019-05-17T16:06:46.634Z,100700.09
2019-05-17T16:09:15.171Z,100700.48
2019-05-17T16:11:43.588Z,100703.25
2019-05-17T16:14:14.510Z,100701.58
2019-05-17T16:16:46.119Z,100705.60
2019-05-17T16:19:14.522Z,100700.90
2019-05-17T16:21:42.943Z,100698.88
2019-05-17T16:24:13.998Z,100694.80
2019-05-17T16:26:44.902Z,100693.81
2019-05-17T16:29:14.269Z,100690.48
2019-05-17T16:31:42.685Z,100692.88
2019-05-17T16:34:11.618Z,100690.81
2019-05-17T16:36:40.012Z,100691.70
2019-05-17T16:39:08.662Z,100689.05
2019-05-17T16:41:37.040Z,100695.29
2019-05-17T16:44:05.532Z,100692.31
2019-05-17T16:46:33.954Z,100691.53
2019-05-17T16:49:02.373Z,100696.59
2019-05-17T16:51:30.796Z,100699.41
2019-05-17T16:53:59.201Z,100700.69
2019-05-17T16:56:27.661Z,100697.16
2019-05-17T16:58:56.079Z,100697.39
2019-05-17T17:01:24.487Z,100701.81
2019-05-17T17:03:53.239Z,100695.60
2019-05-17T17:06:24.032Z,100699.84
2019-05-17T17:08:51.917Z,100698.73
2019-05-17T17:11:21.316Z,100698.73
2019-05-17T17:13:49.766Z,100695.41
2019-05-17T17:16:18.259Z,100698.21
2019-05-17T17:18:46.710Z,100703.98
2019-05-17T17:21:17.737Z,100696.12
2019-05-17T17:23:46.143Z,100695.09
2019-05-17T17:26:14.646Z,100695.34
2019-05-17T17:28:43.116Z,100691.73
2019-05-17T17:31:15.555Z,100691.16
2019-05-17T17:33:44.461Z,100697.96
2019-05-17T17:36:19.356Z,100702.69
2019-05-17T17:38:46.751Z,100694.81
2019-05-17T17:41:15.259Z,100701.41
2019-05-17T17:43:58.027Z,100703.81
2019-05-17T17:46:17.748Z,100702.14
2019-05-17T17:48:46.193Z,100699.52
2019-05-17T17:51:14.655Z,100701.03
2019-05-17T17:53:43.081Z,100692.88
2019-05-17T17:56:13.713Z,100697.78
2019-05-17T17:58:43.433Z,100701.53
2019-05-17T18:01:11.843Z,100697.65
2019-05-17T18:03:41.347Z,100699.05
2019-05-17T18:06:10.002Z,100693.48
2019-05-17T18:08:47.685Z,100700.69
2019-05-17T18:11:16.147Z,100694.13
2019-05-17T18:13:44.542Z,100697.02
2019-05-17T18:16:13.017Z,100701.87
2019-05-17T18:18:41.414Z,100705.25
2019-05-17T18:21:09.984Z,100705.42
2019-05-17T18:23:38.516Z,100708.25
2019-05-17T18:26:07.075Z,100707.56
2019-05-17T18:28:39.235Z,100707.88
2019-05-17T18:31:07.821Z,100711.89
2019-05-17T18:33:36.874Z,100714.59
2019-05-17T18:36:05.325Z,100712.09
2019-05-17T18:38:35.580Z,100703.71
2019-05-17T18:41:04.075Z,100704.64
2019-05-17T18:43:32.486Z,100707.17
2019-05-17T18:46:01.954Z,100702.58
2019-05-17T18:48:30.441Z,100708.02
2019-05-17T18:50:58.906Z,100707.05
2019-05-17T18:53:27.327Z,100712.05
2019-05-17T18:55:55.810Z,100707.46
2019-05-17T18:58:24.219Z,100710.50
2019-05-17T19:00:52.750Z,100712.30
2019-05-17T19:03:21.159Z,100719.04
2019-05-17T19:05:49.579Z,100727.19
2019-05-17T19:08:18.965Z,100722.61
2019-05-17T19:10:48.487Z,100723.38
2019-05-17T19:13:21.088Z,100729.63
2019-05-17T19:15:49.519Z,100725.85
2019-05-17T19:18:18.094Z,100727.47
2019-05-17T19:20:46.611Z,100731.02
2019-05-17T19:23:15.056Z,100730.92
2019-05-17T19:25:43.732Z,100736.31
2019-05-17T19:28:12.111Z,100732.63
2019-05-17T19:30:40.521Z,100738.66
2019-05-17T19:33:09.237Z,100743.20
2019-05-17T19:35:37.653Z,100740.36
2019-05-17T19:38:06.100Z,100747.69
2019-05-17T19:40:38.482Z,100742.18
2019-05-17T19:43:06.944Z,100737.03
2019-05-17T19:45:35.391Z,100743.80
2019-05-17T19:48:03.978Z,100743.64
2019-05-17T19:50:32.449Z,100738.89
2019-05-17T19:53:00.838Z,100746.50
2019-05-17T19:55:33.253Z,100743.16
2019-05-17T19:58:02.830Z,100745.18
2019-05-17T20:00:31.259Z,100751.25
2019-05-17T20:02:59.718Z,100748.23
2019-05-17T20:05:28.127Z,100750.64
2019-05-17T20:07:56.846Z,100750.42
2019-05-17T20:10:25.912Z,100747.90
2019-05-17T20:12:54.322Z,100742.02
2019-05-17T20:15:34.069Z,100739.65
2019-05-17T20:18:00.496Z,100743.25
2019-05-17T20:20:28.928Z,100744.70
2019-05-17T20:22:58.347Z,100748.59
2019-05-17T20:25:26.890Z,100741.85
2019-05-17T20:27:55.345Z,100735.09
2019-05-17T20:30:26.220Z,100745.36
2019-05-17T20:32:54.662Z,100736.23
2019-05-17T20:35:23.294Z,100732.88
2019-05-17T20:37:51.708Z,100737.44
2019-05-17T20:40:41.638Z,100734.88
2019-05-17T20:43:10.867Z,100730.09
2019-05-17T20:45:40.084Z,100729.42
2019-05-17T20:48:08.556Z,100726.53
2019-05-17T20:50:36.977Z,100726.56
2019-05-17T20:53:18.045Z,100723.56
2019-05-17T20:55:36.056Z,100724.41
2019-05-17T20:58:04.908Z,100718.47
2019-05-17T21:00:34.451Z,100714.06
2019-05-17T21:03:04.029Z,100714.06
2019-05-17T21:05:32.449Z,100708.47
2019-05-17T21:08:00.879Z,100711.38
2019-05-17T21:10:29.334Z,100711.93
2019-05-17T21:12:57.768Z,100709.31
2019-05-17T21:15:26.196Z,100706.78
2019-05-17T21:17:54.621Z,100706.45
2019-05-17T21:20:23.030Z,100708.17
2019-05-17T21:22:51.481Z,100713.14
2019-05-17T21:25:19.890Z,100709.66
2019-05-17T21:27:48.351Z,100708.94
2019-05-17T21:30:17.289Z,100709.86
2019-05-17T21:32:45.705Z,100702.83
2019-05-17T21:35:14.288Z,100701.33
2019-05-17T21:37:46.517Z,100712.93
2019-05-17T21:40:16.233Z,100709.33
2019-05-17T21:42:44.683Z,100709.25
2019-05-17T21:45:13.435Z,100710.14
2019-05-17T21:47:41.935Z,100705.92
2019-05-17T21:50:10.745Z,100708.41
2019-05-17T21:52:42.299Z,100714.59
2019-05-17T21:55:10.470Z,100716.94
2019-05-17T21:57:38.891Z,100714.92
2019-05-17T22:00:15.380Z,100711.19
2019-05-17T22:02:43.877Z,100719.22
2019-05-17T22:05:12.312Z,100722.61
2019-05-17T22:07:43.255Z,100717.75
2019-05-17T22:10:15.517Z,100715.86
2019-05-17T22:12:43.997Z,100710.00
2019-05-17T22:15:12.411Z,100707.80
2019-05-17T22:17:44.669Z,100715.27
2019-05-17T22:20:13.462Z,100716.25
2019-05-17T22:22:45.742Z,100708.98
2019-05-17T22:25:17.998Z,100707.70
2019-05-17T22:27:50.131Z,100705.31
2019-05-17T22:30:18.547Z,100700.23
2019-05-17T22:32:47.902Z,100700.38
2019-05-17T22:35:17.942Z,100696.85
2019-05-17T22:37:46.364Z,100698.27
2019-05-17T22:40:15.060Z,100700.87
2019-05-17T22:42:46.043Z,100703.53
2019-05-17T22:45:14.599Z,100705.41
2019-05-17T22:47:45.709Z,100700.05
2019-05-17T22:50:17.311Z,100698.45
2019-05-17T22:52:45.935Z,100695.36
2019-05-17T22:55:14.483Z,100695.36
2019-05-17T22:57:42.925Z,100699.18
2019-05-17T23:00:12.875Z,100692.86
2019-05-17T23:02:41.328Z,100693.77
2019-05-17T23:05:11.597Z,100698.13
2019-05-17T23:07:40.129Z,100703.30
2019-05-17T23:10:12.482Z,100702.59
2019-05-17T23:12:40.895Z,100698.45
2019-05-17T23:15:09.676Z,100700.91
2019-05-17T23:17:38.082Z,100695.13
2019-05-17T23:20:07.404Z,100695.50
2019-05-17T23:22:38.378Z,100694.59
2019-05-17T23:25:07.869Z,100693.62
2019-05-17T23:27:36.286Z,100691.28
2019-05-17T23:30:07.682Z,100690.45
2019-05-17T23:32:36.097Z,100686.81
2019-05-17T23:35:07.153Z,100691.78
2019-05-17T23:37:39.425Z,100688.16
2019-05-17T23:40:09.872Z,100689.25
2019-05-17T23:42:38.243Z,100685.48
2019-05-17T23:45:09.913Z,100682.70
2019-05-17T23:47:38.314Z,100680.04
2019-05-17T23:50:08.897Z,100678.88
2019-05-17T23:52:40.913Z,100684.22
2019-05-17T23:55:11.040Z,100680.14
2019-05-17T23:57:39.489Z,100680.62
